Time;durP1;ratioP1;P1;durP2;ratioP2;P2;SDS_P1;SDS_P2;PMS_P1;PMS_P2;Temp;Humidity;BMP_temperature;BMP_pressure;BME280_temperature;BME280_humidity;BME280_pressure;Samples;Min_cycle;Max_cycle;Signal;HPM_P1;HPM_P2
2023/07/15 00:01:29;;;;;;;5.60;4.17;;;;;;;;;;4972320;28;21071;-69
2023/07/15 00:03:56;;;;;;;8.53;4.50;;;;;;;;;;4955090;28;20223;-69
2023/07/15 00:06:24;;;;;;;6.87;4.40;;;;;;;;;;4972517;28;20252;-69
2023/07/15 00:08:51;;;;;;;8.67;5.17;;;;;;;;;;4972314;28;20190;-69
2023/07/15 00:11:26;;;;;;;6.53;4.87;;;;;;;;;;4972407;28;20189;-69
2023/07/15 00:13:53;;;;;;;6.00;4.90;;;;;;;;;;4972330;28;20660;-69
2023/07/15 00:16:20;;;;;;;8.33;4.60;;;;;;;;;;4955065;28;20793;-69
2023/07/15 00:18:47;;;;;;;6.67;4.43;;;;;;;;;;4972300;28;20237;-69
2023/07/15 00:21:16;;;;;;;6.80;4.40;;;;;;;;;;4972257;28;20576;-69
2023/07/15 00:23:43;;;;;;;7.37;5.23;;;;;;;;;;4954886;28;20213;-69
2023/07/15 00:26:10;;;;;;;6.40;4.60;;;;;;;;;;4954900;28;20560;-69
2023/07/15 00:28:38;;;;;;;6.80;4.20;;;;;;;;;;4954649;28;20660;-68
2023/07/15 00:31:23;;;;;;;9.17;4.73;;;;;;;;;;4954621;28;20529;-69
2023/07/15 00:33:50;;;;;;;6.00;4.80;;;;;;;;;;4938939;28;20205;-69
2023/07/15 00:36:16;;;;;;;6.23;4.47;;;;;;;;;;4955144;28;20252;-69
2023/07/15 00:38:43;;;;;;;5.10;4.43;;;;;;;;;;4971366;28;20225;-69
2023/07/15 00:41:12;;;;;;;7.63;4.70;;;;;;;;;;4938382;28;20280;-69
2023/07/15 00:43:58;;;;;;;8.10;4.20;;;;;;;;;;4971636;28;20224;-69
2023/07/15 00:46:28;;;;;;;5.40;4.30;;;;;;;;;;4971621;28;20228;-69
2023/07/15 00:49:19;;;;;;;7.80;4.27;;;;;;;;;;4957357;28;20179;-69
2023/07/15 00:52:00;;;;;;;7.00;4.20;;;;;;;;;;4954447;28;20196;-69
2023/07/15 01:25:50;;;;;;;5.60;3.67;;;;;;;;;;4951553;29;20581;-69
2023/07/15 01:28:16;;;;;;;4.97;3.70;;;;;;;;;;4951913;29;20271;-69
2023/07/15 01:30:43;;;;;;;7.20;3.80;;;;;;;;;;4951689;29;20198;-69
2023/07/15 01:33:10;;;;;;;4.53;4.13;;;;;;;;;;4934537;29;20194;-69
2023/07/15 01:35:37;;;;;;;9.77;4.40;;;;;;;;;;4934452;29;20605;-69
2023/07/15 01:38:04;;;;;;;7.17;5.03;;;;;;;;;;4933915;29;20647;-69
2023/07/15 01:40:30;;;;;;;9.13;4.97;;;;;;;;;;4951068;29;20256;-69
2023/07/15 01:42:57;;;;;;;6.37;4.50;;;;;;;;;;4951649;29;20216;-69
2023/07/15 01:45:23;;;;;;;7.90;4.37;;;;;;;;;;4951116;29;20229;-69
2023/07/15 01:47:50;;;;;;;7.50;4.80;;;;;;;;;;4950230;29;20199;-69
2023/07/15 01:50:37;;;;;;;8.67;4.90;;;;;;;;;;4951289;29;20202;-69
2023/07/15 01:53:04;;;;;;;6.33;4.60;;;;;;;;;;4933854;29;20289;-69
2023/07/15 01:55:50;;;;;;;6.17;4.90;;;;;;;;;;4951224;29;20174;-69
2023/07/15 01:58:17;;;;;;;8.57;4.73;;;;;;;;;;4937605;28;20279;-69
2023/07/15 02:00:44;;;;;;;6.23;4.63;;;;;;;;;;4952772;28;20287;-69
2023/07/15 02:03:11;;;;;;;5.43;4.27;;;;;;;;;;4952908;28;20723;-69
2023/07/15 02:05:37;;;;;;;7.43;4.70;;;;;;;;;;4952657;28;20212;-69
2023/07/15 02:08:24;;;;;;;8.87;4.60;;;;;;;;;;4952710;28;20188;-68
2023/07/15 02:10:51;;;;;;;8.37;4.97;;;;;;;;;;4952669;28;20244;-69
2023/07/15 02:13:17;;;;;;;6.83;4.63;;;;;;;;;;4970037;28;20329;-69
2023/07/15 02:15:44;;;;;;;7.10;4.70;;;;;;;;;;4952753;28;20296;-69
2023/07/15 02:18:11;;;;;;;5.83;4.57;;;;;;;;;;4952812;28;20229;-69
2023/07/15 02:20:38;;;;;;;8.23;4.63;;;;;;;;;;4969874;28;20267;-69
2023/07/15 02:23:05;;;;;;;8.40;4.40;;;;;;;;;;4952527;28;20225;-69
2023/07/15 02:25:32;;;;;;;7.73;4.40;;;;;;;;;;4952553;28;20692;-69
2023/07/15 02:27:58;;;;;;;7.07;4.00;;;;;;;;;;4969834;28;20197;-69
2023/07/15 02:30:26;;;;;;;9.33;5.30;;;;;;;;;;4969802;28;20308;-69
2023/07/15 02:32:54;;;;;;;8.43;4.50;;;;;;;;;;4969576;28;20278;-69
2023/07/15 02:35:21;;;;;;;6.57;4.80;;;;;;;;;;4969458;28;21032;-69
2023/07/15 02:37:51;;;;;;;6.87;4.00;;;;;;;;;;4969645;28;20193;-69
2023/07/15 02:40:18;;;;;;;7.53;4.70;;;;;;;;;;4951845;28;20264;-69
2023/07/15 02:43:02;;;;;;;9.37;4.90;;;;;;;;;;4969302;28;20193;-69
2023/07/15 02:45:28;;;;;;;6.60;5.00;;;;;;;;;;4952305;28;20232;-69
2023/07/15 02:47:55;;;;;;;5.90;4.50;;;;;;;;;;4969715;28;20585;-69
2023/07/15 02:50:23;;;;;;;6.87;4.70;;;;;;;;;;4951656;28;20201;-69
2023/07/15 02:52:50;;;;;;;8.43;4.97;;;;;;;;;;4952286;28;20788;-69
2023/07/15 02:55:17;;;;;;;7.93;5.10;;;;;;;;;;4951994;28;20522;-69
2023/07/15 02:57:44;;;;;;;6.27;5.07;;;;;;;;;;4969574;28;20731;-69
2023/07/15 03:00:12;;;;;;;10.63;5.00;;;;;;;;;;4952204;28;20189;-69
2023/07/15 03:02:39;;;;;;;9.50;4.93;;;;;;;;;;4952095;28;20205;-69
2023/07/15 03:05:06;;;;;;;12.23;5.77;;;;;;;;;;4951756;28;20194;-70
2023/07/15 03:07:33;;;;;;;6.40;4.60;;;;;;;;;;4952152;28;20197;-70
2023/07/15 03:10:03;;;;;;;11.20;5.70;;;;;;;;;;4936019;28;20201;-70
2023/07/15 03:12:29;;;;;;;9.33;4.60;;;;;;;;;;4952149;28;20212;-70
2023/07/15 03:14:56;;;;;;;7.50;5.03;;;;;;;;;;4952004;28;20724;-69
2023/07/15 03:17:23;;;;;;;6.50;5.40;;;;;;;;;;4968808;28;20198;-69
2023/07/15 03:19:50;;;;;;;7.40;4.93;;;;;;;;;;4969248;28;20182;-69
2023/07/15 03:22:17;;;;;;;8.87;5.37;;;;;;;;;;4952097;28;20260;-70
2023/07/15 03:24:45;;;;;;;7.77;5.60;;;;;;;;;;4969087;28;20225;-70
2023/07/15 03:27:12;;;;;;;9.23;5.70;;;;;;;;;;4951972;28;20263;-69
2023/07/15 03:29:38;;;;;;;10.00;5.33;;;;;;;;;;4968772;28;20640;-70
2023/07/15 03:32:05;;;;;;;9.67;5.20;;;;;;;;;;4952837;28;20307;-70
2023/07/15 03:34:33;;;;;;;9.60;5.23;;;;;;;;;;4972752;28;20201;-70
2023/07/15 03:36:59;;;;;;;7.03;4.93;;;;;;;;;;4955536;28;20201;-70
2023/07/15 03:39:26;;;;;;;9.97;4.90;;;;;;;;;;4972804;28;20189;-70
2023/07/15 03:41:53;;;;;;;9.43;5.10;;;;;;;;;;4973115;28;20532;-70
2023/07/15 03:44:19;;;;;;;10.77;4.83;;;;;;;;;;4972697;28;20217;-70
2023/07/15 03:46:46;;;;;;;10.47;4.67;;;;;;;;;;4972530;28;20420;-71
2023/07/15 03:49:13;;;;;;;10.40;4.60;;;;;;;;;;4972694;28;20213;-69
2023/07/15 03:51:40;;;;;;;9.27;5.10;;;;;;;;;;4955717;28;20695;-70
2023/07/15 03:54:24;;;;;;;10.80;5.00;;;;;;;;;;4972479;28;20665;-70
2023/07/15 03:56:50;;;;;;;9.97;5.30;;;;;;;;;;4972534;28;20197;-70
2023/07/15 03:59:17;;;;;;;10.83;5.00;;;;;;;;;;4972765;28;20196;-69
2023/07/15 04:01:44;;;;;;;9.13;4.70;;;;;;;;;;4972097;28;20197;-70
2023/07/15 04:04:11;;;;;;;9.23;5.40;;;;;;;;;;4972618;28;21120;-70
2023/07/15 04:06:38;;;;;;;7.63;4.63;;;;;;;;;;4972769;28;20276;-70
2023/07/15 04:09:05;;;;;;;12.20;4.73;;;;;;;;;;4972177;28;20193;-70
2023/07/15 04:11:32;;;;;;;9.13;4.73;;;;;;;;;;4972362;28;20240;-70
2023/07/15 04:13:59;;;;;;;11.53;4.47;;;;;;;;;;4972607;28;20221;-70
2023/07/15 04:16:26;;;;;;;6.73;4.30;;;;;;;;;;4955095;28;20244;-70
2023/07/15 04:18:52;;;;;;;10.87;4.77;;;;;;;;;;4972095;28;20304;-70
2023/07/15 04:21:37;;;;;;;10.60;4.40;;;;;;;;;;4972646;28;20389;-70
2023/07/15 04:24:03;;;;;;;11.83;4.63;;;;;;;;;;4971595;28;20661;-70
2023/07/15 04:26:48;;;;;;;7.33;3.97;;;;;;;;;;4971674;28;20177;-70
2023/07/15 04:29:14;;;;;;;9.57;3.93;;;;;;;;;;4954908;28;20743;-70
2023/07/15 04:31:42;;;;;;;7.63;4.20;;;;;;;;;;4971905;28;20197;-70
2023/07/15 04:34:09;;;;;;;7.17;4.00;;;;;;;;;;4971940;28;20564;-70
2023/07/15 04:36:36;;;;;;;7.93;4.30;;;;;;;;;;4972347;28;20726;-70
2023/07/15 04:39:02;;;;;;;7.63;4.20;;;;;;;;;;4971613;28;20254;-70
2023/07/15 04:41:29;;;;;;;6.53;4.47;;;;;;;;;;4971653;28;20260;-70
2023/07/15 04:43:56;;;;;;;8.10;4.90;;;;;;;;;;4970704;28;20202;-70
2023/07/15 04:46:40;;;;;;;10.63;4.80;;;;;;;;;;4971684;28;20224;-70
2023/07/15 04:49:07;;;;;;;8.30;4.47;;;;;;;;;;4971608;28;20188;-70
2023/07/15 04:51:51;;;;;;;5.27;3.93;;;;;;;;;;4971831;28;20635;-70
2023/07/15 04:54:18;;;;;;;4.33;3.77;;;;;;;;;;4972103;28;20189;-70
2023/07/15 04:56:44;;;;;;;8.70;3.80;;;;;;;;;;4953908;28;20244;-70
2023/07/15 04:59:11;;;;;;;5.83;3.30;;;;;;;;;;4971642;28;20196;-70
2023/07/15 05:01:38;;;;;;;7.87;3.60;;;;;;;;;;4971524;28;20556;-70
2023/07/15 05:04:22;;;;;;;5.43;2.80;;;;;;;;;;4971234;28;20203;-70
2023/07/15 05:06:48;;;;;;;8.60;3.30;;;;;;;;;;4971687;28;20269;-70
2023/07/15 05:09:32;;;;;;;5.87;2.53;;;;;;;;;;4957319;28;20554;-70
2023/07/15 05:12:00;;;;;;;5.23;2.70;;;;;;;;;;4953693;28;20204;-68
2023/07/15 05:14:27;;;;;;;4.50;2.57;;;;;;;;;;4952330;28;20225;-68
2023/07/15 05:16:54;;;;;;;3.10;2.30;;;;;;;;;;4966741;28;20234;-67
2023/07/15 05:19:22;;;;;;;7.40;2.83;;;;;;;;;;4968922;28;20193;-66
2023/07/15 05:21:49;;;;;;;3.40;1.90;;;;;;;;;;4969886;28;20213;-67
2023/07/15 05:24:15;;;;;;;4.13;2.30;;;;;;;;;;4969521;28;20206;-67
2023/07/15 05:26:42;;;;;;;3.93;2.30;;;;;;;;;;4969217;28;20284;-68
2023/07/15 05:29:10;;;;;;;4.50;2.10;;;;;;;;;;4969466;28;20195;-67
2023/07/15 05:31:37;;;;;;;3.37;2.00;;;;;;;;;;4969136;28;20193;-68
2023/07/15 05:34:04;;;;;;;3.83;2.03;;;;;;;;;;4969108;28;20200;-68
2023/07/15 05:36:31;;;;;;;3.37;2.30;;;;;;;;;;4952537;28;20596;-66
2023/07/15 05:38:57;;;;;;;2.07;1.87;;;;;;;;;;4969250;28;20205;-69
2023/07/15 05:41:24;;;;;;;3.90;2.17;;;;;;;;;;4968207;28;20304;-68
2023/07/15 05:43:51;;;;;;;3.00;2.17;;;;;;;;;;4969420;28;20201;-68
2023/07/15 05:46:18;;;;;;;3.87;2.20;;;;;;;;;;4969264;28;20213;-68
2023/07/15 05:48:44;;;;;;;2.73;2.20;;;;;;;;;;4969459;28;20212;-68
2023/07/15 05:51:30;;;;;;;2.90;2.03;;;;;;;;;;4954823;28;20540;-68
2023/07/15 05:53:56;;;;;;;3.07;2.10;;;;;;;;;;4969285;28;20885;-68
2023/07/15 05:56:23;;;;;;;4.00;2.17;;;;;;;;;;4968044;28;20204;-68
2023/07/15 05:58:50;;;;;;;5.53;2.23;;;;;;;;;;4951700;28;20185;-68
2023/07/15 06:01:17;;;;;;;4.03;2.43;;;;;;;;;;4968562;28;20205;-68
2023/07/15 06:04:01;;;;;;;5.47;2.03;;;;;;;;;;4968522;28;20197;-69
2023/07/15 06:06:28;;;;;;;4.33;2.13;;;;;;;;;;4949332;28;20192;-70
2023/07/15 06:08:55;;;;;;;2.20;2.00;;;;;;;;;;4969538;28;20268;-70
2023/07/15 06:11:22;;;;;;;4.27;1.90;;;;;;;;;;4971974;28;20197;-70
2023/07/15 06:13:48;;;;;;;3.80;2.20;;;;;;;;;;4950287;28;20890;-68
2023/07/15 06:16:15;;;;;;;4.27;2.33;;;;;;;;;;4968901;28;20220;-69
2023/07/15 06:18:42;;;;;;;3.33;1.90;;;;;;;;;;4969964;28;20201;-68
2023/07/15 06:21:08;;;;;;;5.23;2.17;;;;;;;;;;4952536;28;20208;-68
2023/07/15 06:23:53;;;;;;;5.17;2.07;;;;;;;;;;4969532;28;20553;-68
2023/07/15 06:26:20;;;;;;;4.43;2.37;;;;;;;;;;4970003;28;20245;-68
2023/07/15 06:29:04;;;;;;;4.70;2.00;;;;;;;;;;4969440;28;20192;-68
2023/07/15 06:31:31;;;;;;;3.87;2.07;;;;;;;;;;4970106;28;20189;-68
2023/07/15 06:34:15;;;;;;;3.40;2.10;;;;;;;;;;4952518;28;20241;-68
2023/07/15 06:36:42;;;;;;;2.83;1.90;;;;;;;;;;4969843;28;20186;-68
2023/07/15 06:39:09;;;;;;;4.47;1.83;;;;;;;;;;4969447;28;20205;-68
2023/07/15 06:41:35;;;;;;;2.10;1.90;;;;;;;;;;4969714;28;20197;-68
2023/07/15 06:44:03;;;;;;;4.40;2.03;;;;;;;;;;4951965;28;20562;-68
2023/07/15 06:46:47;;;;;;;3.00;2.20;;;;;;;;;;4952295;28;20656;-68
2023/07/15 06:49:14;;;;;;;3.50;2.23;;;;;;;;;;4969951;28;20200;-68
2023/07/15 06:51:58;;;;;;;6.30;2.17;;;;;;;;;;4969543;28;20188;-71
2023/07/15 06:54:24;;;;;;;5.07;2.10;;;;;;;;;;4969457;28;20288;-73
2023/07/15 06:57:08;;;;;;;2.83;1.60;;;;;;;;;;4954903;28;20161;-73
2023/07/15 06:59:35;;;;;;;3.57;1.87;;;;;;;;;;4952485;28;20197;-76
2023/07/15 07:02:02;;;;;;;2.40;2.00;;;;;;;;;;4969463;28;20589;-74
2023/07/15 07:04:29;;;;;;;3.17;1.90;;;;;;;;;;4952141;28;20209;-78
2023/07/15 07:06:58;;;;;;;3.57;1.73;;;;;;;;;;4969064;28;20272;-78
2023/07/15 07:09:42;;;;;;;4.33;2.03;;;;;;;;;;4969150;28;20204;-77
2023/07/15 07:12:09;;;;;;;2.47;1.90;;;;;;;;;;4951890;28;20673;-76
2023/07/15 07:14:53;;;;;;;2.87;1.60;;;;;;;;;;4969624;28;20537;-78
2023/07/15 07:17:20;;;;;;;4.17;2.10;;;;;;;;;;4969490;28;20271;-74
2023/07/15 07:19:47;;;;;;;2.37;2.00;;;;;;;;;;4969069;28;20193;-62
2023/07/15 07:22:14;;;;;;;4.33;2.00;;;;;;;;;;4969489;28;20193;-62
2023/07/15 07:24:40;;;;;;;4.40;1.90;;;;;;;;;;4969087;28;20273;-67
2023/07/15 07:27:07;;;;;;;3.17;1.97;;;;;;;;;;4969477;28;20682;-66
2023/07/15 07:29:34;;;;;;;3.10;1.63;;;;;;;;;;4969439;28;20195;-67
2023/07/15 07:32:01;;;;;;;2.73;2.00;;;;;;;;;;4968974;28;20323;-64
2023/07/15 07:34:45;;;;;;;3.73;2.10;;;;;;;;;;4969225;28;20174;-64
2023/07/15 07:37:12;;;;;;;3.87;2.10;;;;;;;;;;4969192;28;20283;-66
2023/07/15 07:39:38;;;;;;;2.70;1.60;;;;;;;;;;4969033;28;20237;-65
2023/07/15 07:42:07;;;;;;;7.67;2.23;;;;;;;;;;4968878;28;20530;-61
2023/07/15 07:44:34;;;;;;;3.07;2.00;;;;;;;;;;4968860;28;20577;-62
2023/07/15 07:47:01;;;;;;;4.63;1.90;;;;;;;;;;4968584;28;20220;-62
2023/07/15 07:49:28;;;;;;;3.93;2.00;;;;;;;;;;4969140;28;20201;-70
2023/07/15 07:51:54;;;;;;;3.47;1.80;;;;;;;;;;4969184;28;20179;-66
2023/07/15 07:54:22;;;;;;;4.67;1.90;;;;;;;;;;4968896;28;20208;-66
2023/07/15 07:56:48;;;;;;;4.20;1.80;;;;;;;;;;4968882;28;20200;-66
2023/07/15 07:59:15;;;;;;;4.40;1.90;;;;;;;;;;4968729;28;20665;-66
2023/07/15 08:01:42;;;;;;;8.27;2.30;;;;;;;;;;4968542;28;20305;-66
2023/07/15 08:04:08;;;;;;;3.97;1.93;;;;;;;;;;4968881;28;20222;-65
2023/07/15 08:06:35;;;;;;;13.90;2.33;;;;;;;;;;4969273;28;20187;-65
2023/07/15 08:09:02;;;;;;;3.43;1.93;;;;;;;;;;4968338;28;20273;-65
2023/07/15 08:11:29;;;;;;;4.43;1.90;;;;;;;;;;4969125;28;20193;-66
2023/07/15 08:13:56;;;;;;;3.23;1.87;;;;;;;;;;4951638;28;20197;-70
2023/07/15 08:16:41;;;;;;;5.33;2.00;;;;;;;;;;4966486;28;20207;-66
2023/07/15 08:19:07;;;;;;;3.47;1.73;;;;;;;;;;4969805;28;20197;-65
2023/07/15 08:21:52;;;;;;;4.43;1.90;;;;;;;;;;4972558;28;20225;-66
2023/07/15 08:24:18;;;;;;;3.43;1.90;;;;;;;;;;4972521;28;20230;-66
2023/07/15 08:26:45;;;;;;;4.80;2.10;;;;;;;;;;4971780;28;20642;-64
2023/07/15 08:29:11;;;;;;;3.77;1.90;;;;;;;;;;4971675;28;20726;-64
2023/07/15 08:31:38;;;;;;;2.87;1.90;;;;;;;;;;4971972;28;20313;-64
2023/07/15 08:34:06;;;;;;;4.27;1.90;;;;;;;;;;4971914;28;20259;-65
2023/07/15 08:36:34;;;;;;;3.57;2.07;;;;;;;;;;4968288;28;20199;-67
2023/07/15 08:39:01;;;;;;;2.90;2.07;;;;;;;;;;4971311;28;20195;-68
2023/07/15 08:41:45;;;;;;;3.47;2.10;;;;;;;;;;4971491;28;20785;-67
2023/07/15 08:44:14;;;;;;;5.40;2.23;;;;;;;;;;4954582;28;20550;-67
2023/07/15 08:46:58;;;;;;;4.07;2.00;;;;;;;;;;4971738;28;20190;-68
2023/07/15 08:49:25;;;;;;;4.37;2.10;;;;;;;;;;4954390;28;20276;-68
2023/07/15 08:51:52;;;;;;;2.77;1.87;;;;;;;;;;4954712;28;20236;-67
2023/07/15 08:54:19;;;;;;;2.17;1.97;;;;;;;;;;4971747;28;20332;-67
2023/07/15 08:56:46;;;;;;;2.10;1.90;;;;;;;;;;4961786;28;20203;-67
2023/07/15 08:59:16;;;;;;;5.27;2.13;;;;;;;;;;4966589;28;20266;-66
2023/07/15 09:01:43;;;;;;;3.60;2.00;;;;;;;;;;4969007;28;20192;-65
2023/07/15 09:04:11;;;;;;;3.33;2.20;;;;;;;;;;4969226;28;20195;-65
2023/07/15 09:06:41;;;;;;;3.57;1.97;;;;;;;;;;4969274;28;20652;-65
2023/07/15 09:09:07;;;;;;;4.57;2.20;;;;;;;;;;4952587;28;20200;-66
2023/07/15 09:11:41;;;;;;;6.10;2.20;;;;;;;;;;4969324;28;20190;-66
2023/07/15 09:14:14;;;;;;;4.27;2.10;;;;;;;;;;4969618;28;20205;-66
2023/07/15 09:16:42;;;;;;;3.20;2.00;;;;;;;;;;4968947;28;20187;-66
2023/07/15 09:19:09;;;;;;;3.60;2.20;;;;;;;;;;4968801;28;20197;-74
2023/07/15 09:21:35;;;;;;;4.30;2.40;;;;;;;;;;4951805;28;20277;-67
2023/07/15 09:24:02;;;;;;;5.63;2.30;;;;;;;;;;4967361;28;20198;-66
2023/07/15 09:26:29;;;;;;;3.50;2.10;;;;;;;;;;4970707;28;20227;-68
2023/07/15 09:28:56;;;;;;;3.57;1.87;;;;;;;;;;4971874;28;20200;-68
2023/07/15 09:31:23;;;;;;;4.40;2.03;;;;;;;;;;4950864;28;20256;-68
2023/07/15 09:33:50;;;;;;;2.77;1.77;;;;;;;;;;4969894;28;20197;-69
2023/07/15 09:36:28;;;;;;;2.00;1.80;;;;;;;;;;4970935;28;20189;-68
2023/07/15 09:39:15;;;;;;;5.60;2.20;;;;;;;;;;4970568;28;20173;-68
2023/07/15 09:41:42;;;;;;;4.40;2.00;;;;;;;;;;4970087;28;20220;-68
2023/07/15 09:44:10;;;;;;;2.00;1.80;;;;;;;;;;4953717;28;20555;-68
2023/07/15 09:46:39;;;;;;;2.43;2.10;;;;;;;;;;4953790;28;20198;-68
2023/07/15 09:49:06;;;;;;;3.10;1.80;;;;;;;;;;4937679;28;20683;-68
2023/07/15 09:51:32;;;;;;;2.37;1.70;;;;;;;;;;4970861;28;20244;-68
2023/07/15 09:53:59;;;;;;;4.03;1.83;;;;;;;;;;4953266;28;20303;-68
2023/07/15 09:56:29;;;;;;;2.67;1.70;;;;;;;;;;4953100;28;20208;-68
2023/07/15 09:58:56;;;;;;;3.10;2.03;;;;;;;;;;4970443;28;20194;-67
2023/07/15 10:01:32;;;;;;;2.70;2.10;;;;;;;;;;4970085;28;20281;-68
2023/07/15 10:04:05;;;;;;;2.57;1.63;;;;;;;;;;4970131;28;20197;-69
2023/07/15 10:06:33;;;;;;;3.97;2.00;;;;;;;;;;4970567;28;20206;-68
2023/07/15 10:09:00;;;;;;;3.53;2.27;;;;;;;;;;4970066;28;20189;-69
2023/07/15 10:11:29;;;;;;;3.40;1.83;;;;;;;;;;4969978;28;20220;-68
2023/07/15 10:13:56;;;;;;;4.17;1.77;;;;;;;;;;4953446;28;20185;-67
2023/07/15 10:16:23;;;;;;;2.77;2.10;;;;;;;;;;4952623;28;20704;-67
2023/07/15 10:18:50;;;;;;;4.97;2.13;;;;;;;;;;4953380;28;20185;-67
2023/07/15 10:21:17;;;;;;;5.23;2.43;;;;;;;;;;4969976;28;20204;-67
2023/07/15 10:23:43;;;;;;;3.40;2.10;;;;;;;;;;4952791;28;20200;-67
2023/07/15 10:26:10;;;;;;;3.20;2.00;;;;;;;;;;4952658;28;20300;-67
2023/07/15 10:28:38;;;;;;;2.63;1.80;;;;;;;;;;4970105;28;20185;-68
2023/07/15 10:31:05;;;;;;;3.00;1.80;;;;;;;;;;4970318;28;20221;-69
2023/07/15 10:33:32;;;;;;;4.00;2.07;;;;;;;;;;4970232;28;20197;-68
2023/07/15 10:35:59;;;;;;;3.30;1.83;;;;;;;;;;4937005;28;20233;-68
2023/07/15 10:38:25;;;;;;;3.40;1.87;;;;;;;;;;4969818;28;20577;-69
2023/07/15 10:40:52;;;;;;;4.67;2.10;;;;;;;;;;4967871;28;20222;-68
2023/07/15 10:43:19;;;;;;;2.33;2.00;;;;;;;;;;4967921;28;20205;-69
2023/07/15 10:45:52;;;;;;;2.67;2.00;;;;;;;;;;4969616;28;20712;-68
2023/07/15 10:48:22;;;;;;;3.33;2.00;;;;;;;;;;4969895;28;20196;-69
2023/07/15 10:50:52;;;;;;;3.57;1.97;;;;;;;;;;4952486;28;20189;-69
2023/07/15 10:53:22;;;;;;;3.73;1.87;;;;;;;;;;4969550;28;20217;-70
2023/07/15 10:55:53;;;;;;;3.67;1.80;;;;;;;;;;4969515;28;20186;-68
2023/07/15 10:58:20;;;;;;;3.10;1.87;;;;;;;;;;4952185;28;20288;-69
2023/07/15 11:00:46;;;;;;;5.13;2.17;;;;;;;;;;4969818;28;20654;-69
2023/07/15 11:03:31;;;;;;;3.90;2.20;;;;;;;;;;4969889;28;20169;-69
2023/07/15 11:05:58;;;;;;;3.30;1.90;;;;;;;;;;4969111;28;20248;-68
2023/07/15 11:08:44;;;;;;;3.57;2.00;;;;;;;;;;4969083;28;20165;-68
2023/07/15 11:11:11;;;;;;;3.10;1.90;;;;;;;;;;4969100;28;20593;-69
2023/07/15 11:13:40;;;;;;;3.00;2.10;;;;;;;;;;4969220;28;20217;-68
2023/07/15 11:16:07;;;;;;;2.73;2.30;;;;;;;;;;4969385;28;20699;-68
2023/07/15 11:18:34;;;;;;;3.37;2.10;;;;;;;;;;4969708;28;20194;-69
2023/07/15 11:21:01;;;;;;;4.90;2.30;;;;;;;;;;4968807;28;20185;-68
2023/07/15 11:23:28;;;;;;;2.53;2.00;;;;;;;;;;4969170;28;20455;-69
2023/07/15 11:25:57;;;;;;;5.27;2.27;;;;;;;;;;4952112;28;20639;-68
2023/07/15 11:28:48;;;;;;;3.43;2.20;;;;;;;;;;4968982;28;20185;-68
2023/07/15 11:31:15;;;;;;;2.23;2.03;;;;;;;;;;4968961;28;20256;-68
2023/07/15 11:33:59;;;;;;;4.43;1.90;;;;;;;;;;4967160;28;20181;-68
2023/07/15 11:36:25;;;;;;;4.90;2.23;;;;;;;;;;4968449;28;20186;-68
2023/07/15 11:39:10;;;;;;;2.33;2.10;;;;;;;;;;4954421;28;20158;-68
2023/07/15 11:41:37;;;;;;;4.07;2.10;;;;;;;;;;4969182;28;20194;-68
2023/07/15 11:44:08;;;;;;;4.40;2.10;;;;;;;;;;4968727;28;20194;-68
2023/07/15 11:46:36;;;;;;;4.27;2.17;;;;;;;;;;4952093;28;20221;-68
2023/07/15 11:49:03;;;;;;;3.83;2.03;;;;;;;;;;4968441;28;20217;-68
2023/07/15 11:51:48;;;;;;;3.87;1.90;;;;;;;;;;4969401;28;20176;-68
2023/07/15 11:54:15;;;;;;;2.97;1.93;;;;;;;;;;4972252;28;20182;-68
2023/07/15 11:57:00;;;;;;;2.50;2.00;;;;;;;;;;4957582;28;20178;-68
2023/07/15 11:59:27;;;;;;;4.63;1.90;;;;;;;;;;4972362;28;20185;-68
2023/07/15 12:01:56;;;;;;;2.37;2.10;;;;;;;;;;4955559;28;20197;-68
2023/07/15 12:04:23;;;;;;;2.20;2.00;;;;;;;;;;4972162;28;20252;-67
2023/07/15 12:06:50;;;;;;;3.90;2.13;;;;;;;;;;4955495;28;20259;-69
2023/07/15 12:09:17;;;;;;;2.23;2.00;;;;;;;;;;4972447;28;20185;-68
2023/07/15 12:11:44;;;;;;;3.80;2.20;;;;;;;;;;4971838;28;20196;-68
2023/07/15 12:14:12;;;;;;;3.10;2.30;;;;;;;;;;4972376;28;20186;-67
2023/07/15 12:16:39;;;;;;;3.63;2.13;;;;;;;;;;4972216;28;20324;-68
2023/07/15 12:19:06;;;;;;;2.60;2.27;;;;;;;;;;4972451;28;20928;-68
2023/07/15 12:21:38;;;;;;;4.07;2.27;;;;;;;;;;4973614;28;20318;-67
2023/07/15 12:24:05;;;;;;;2.67;2.20;;;;;;;;;;4972877;28;20595;-67
2023/07/15 12:26:31;;;;;;;2.50;2.30;;;;;;;;;;4973040;28;20225;-67
2023/07/15 12:28:58;;;;;;;3.63;2.00;;;;;;;;;;4973167;28;20324;-67
2023/07/15 12:31:25;;;;;;;3.20;2.23;;;;;;;;;;4972938;28;20197;-67
2023/07/15 12:33:52;;;;;;;3.53;2.23;;;;;;;;;;4973511;28;20193;-67
2023/07/15 12:36:18;;;;;;;3.67;2.43;;;;;;;;;;4972926;28;20220;-68
2023/07/15 12:38:45;;;;;;;3.67;2.23;;;;;;;;;;4972956;28;20676;-68
2023/07/15 12:41:12;;;;;;;3.93;2.03;;;;;;;;;;4972573;28;20268;-67
2023/07/15 12:43:39;;;;;;;2.20;2.00;;;;;;;;;;4972796;28;20247;-68
2023/07/15 12:46:05;;;;;;;2.30;2.10;;;;;;;;;;4974144;28;20239;-68
2023/07/15 12:48:32;;;;;;;2.90;2.10;;;;;;;;;;4974393;28;20186;-67
2023/07/15 12:50:59;;;;;;;4.17;2.13;;;;;;;;;;4954261;28;20921;-68
2023/07/15 12:53:26;;;;;;;5.07;2.80;;;;;;;;;;4971612;28;20185;-68
2023/07/15 12:55:55;;;;;;;4.77;2.60;;;;;;;;;;4971706;28;20205;-71
2023/07/15 12:58:22;;;;;;;4.03;2.30;;;;;;;;;;4966681;28;20190;-68
2023/07/15 13:00:49;;;;;;;5.83;2.87;;;;;;;;;;4952809;29;20189;-67
2023/07/15 13:03:17;;;;;;;6.07;2.53;;;;;;;;;;4952361;28;20197;-66
2023/07/15 13:05:44;;;;;;;3.40;2.40;;;;;;;;;;4971388;28;20295;-66
2023/07/15 13:08:13;;;;;;;2.87;2.30;;;;;;;;;;4972351;28;20662;-67
2023/07/15 13:10:42;;;;;;;3.73;2.13;;;;;;;;;;4965271;28;20226;-67
2023/07/15 13:13:08;;;;;;;3.23;2.50;;;;;;;;;;4968507;28;20201;-67
2023/07/15 13:15:35;;;;;;;3.13;2.40;;;;;;;;;;4968795;28;20192;-66
2023/07/15 13:18:02;;;;;;;4.27;2.80;;;;;;;;;;4967770;28;20202;-67
2023/07/15 13:20:29;;;;;;;3.03;2.60;;;;;;;;;;4951314;28;20197;-67
2023/07/15 13:22:55;;;;;;;4.13;2.50;;;;;;;;;;4968823;28;20276;-67
2023/07/15 13:25:22;;;;;;;4.13;2.70;;;;;;;;;;4967829;28;20660;-67
2023/07/15 13:27:49;;;;;;;6.20;2.80;;;;;;;;;;4968454;28;20659;-68
2023/07/15 13:30:16;;;;;;;4.40;2.80;;;;;;;;;;4950243;28;22061;-67
2023/07/15 13:32:42;;;;;;;2.97;2.40;;;;;;;;;;4967199;28;20245;-68
2023/07/15 13:35:10;;;;;;;3.30;2.60;;;;;;;;;;4967312;28;20193;-68
2023/07/15 13:37:54;;;;;;;3.93;2.73;;;;;;;;;;4952806;28;20754;-68
2023/07/15 13:40:21;;;;;;;4.20;2.40;;;;;;;;;;4966723;28;20240;-68
2023/07/15 13:42:50;;;;;;;3.57;2.73;;;;;;;;;;4968117;28;20751;-68
2023/07/15 13:45:18;;;;;;;3.80;2.40;;;;;;;;;;4967566;28;20284;-68
2023/07/15 13:47:44;;;;;;;3.63;2.50;;;;;;;;;;4967294;28;20202;-69
2023/07/15 13:50:11;;;;;;;7.23;2.77;;;;;;;;;;4967614;28;20194;-68
2023/07/15 13:52:38;;;;;;;2.97;2.67;;;;;;;;;;4967690;28;20204;-69
2023/07/15 13:55:05;;;;;;;6.10;2.63;;;;;;;;;;4968378;28;20691;-68
2023/07/15 13:57:32;;;;;;;5.37;2.57;;;;;;;;;;4968978;28;20208;-68
2023/07/15 13:59:58;;;;;;;6.90;3.00;;;;;;;;;;4968273;28;20827;-69
2023/07/15 14:02:25;;;;;;;6.13;2.37;;;;;;;;;;4968430;28;20197;-68
2023/07/15 14:05:09;;;;;;;6.60;2.40;;;;;;;;;;4951221;28;20192;-68
2023/07/15 14:07:37;;;;;;;3.23;2.30;;;;;;;;;;4968562;28;20311;-68
2023/07/15 14:10:21;;;;;;;3.77;2.00;;;;;;;;;;4946845;28;20186;-68
2023/07/15 14:12:48;;;;;;;3.63;2.50;;;;;;;;;;4951839;28;20224;-68
2023/07/15 14:15:32;;;;;;;6.77;2.70;;;;;;;;;;4968691;28;20177;-69
2023/07/15 14:18:00;;;;;;;2.33;2.10;;;;;;;;;;4968078;28;20187;-68
2023/07/15 14:20:27;;;;;;;4.80;2.53;;;;;;;;;;4950878;28;20850;-68
2023/07/15 14:22:54;;;;;;;3.33;2.63;;;;;;;;;;4967992;28;20664;-68
2023/07/15 14:25:21;;;;;;;4.63;2.40;;;;;;;;;;4967379;28;20197;-68
2023/07/15 14:27:48;;;;;;;5.33;2.60;;;;;;;;;;4968144;28;20628;-69
2023/07/15 14:30:14;;;;;;;4.03;2.30;;;;;;;;;;4950405;28;20604;-68
2023/07/15 14:32:41;;;;;;;5.87;2.37;;;;;;;;;;4967878;28;20203;-69
2023/07/15 14:35:08;;;;;;;3.27;2.37;;;;;;;;;;4968087;28;20228;-68
2023/07/15 14:37:35;;;;;;;4.03;2.63;;;;;;;;;;4968287;28;20255;-68
2023/07/15 14:40:01;;;;;;;4.40;2.17;;;;;;;;;;4967314;28;20235;-68
2023/07/15 14:42:28;;;;;;;5.93;2.50;;;;;;;;;;4968586;28;20592;-69
2023/07/15 14:44:55;;;;;;;3.90;2.40;;;;;;;;;;4968093;28;20207;-68
2023/07/15 14:47:21;;;;;;;3.47;2.17;;;;;;;;;;4967909;28;20239;-68
2023/07/15 14:49:48;;;;;;;7.13;2.47;;;;;;;;;;4967600;28;20203;-68
2023/07/15 14:52:15;;;;;;;4.43;2.70;;;;;;;;;;4968320;28;20649;-68
2023/07/15 14:54:42;;;;;;;4.20;2.57;;;;;;;;;;4968056;28;20277;-68
2023/07/15 14:57:08;;;;;;;5.40;2.40;;;;;;;;;;4968314;28;20192;-68
2023/07/15 14:59:35;;;;;;;3.17;2.30;;;;;;;;;;4967543;28;20199;-68
2023/07/15 15:02:02;;;;;;;2.50;2.17;;;;;;;;;;4967967;28;20219;-68
2023/07/15 15:04:29;;;;;;;3.10;2.40;;;;;;;;;;4968329;28;20250;-68
2023/07/15 15:06:55;;;;;;;3.80;2.33;;;;;;;;;;4968112;28;20207;-68
2023/07/15 15:09:23;;;;;;;3.70;2.40;;;;;;;;;;4967665;28;20245;-69
2023/07/15 15:11:50;;;;;;;4.10;2.33;;;;;;;;;;4967636;28;20247;-69
2023/07/15 15:14:20;;;;;;;3.63;2.67;;;;;;;;;;4964933;28;20322;-68
2023/07/15 15:16:46;;;;;;;3.00;2.43;;;;;;;;;;4964894;28;20802;-68
2023/07/15 15:19:13;;;;;;;3.37;2.73;;;;;;;;;;4967396;28;20259;-68
2023/07/15 15:21:40;;;;;;;4.73;2.40;;;;;;;;;;4950219;28;20294;-68
2023/07/15 15:24:07;;;;;;;4.80;2.43;;;;;;;;;;4949831;28;20244;-68
2023/07/15 15:26:34;;;;;;;4.90;2.50;;;;;;;;;;4967214;28;20213;-68